Aviation Digital Data Service (ADDS)

Output produced by METARs form (1026 UTC 19 February 2019)
found at http://www.aviationweather.gov/metar/data/
 
METAR text: MSLP 190950Z 06004KT 9999 FEW075 21/19 Q1011 A2987 NOSIG
Conditions at: MSLP (EL SALVADOR INT , SV) observed 0950 UTC 19 February 2019
Temperature: 21.0°C (70°F)
Dewpoint: 19.0°C (66°F) [RH = 88%]
Pressure (altimeter): 29.85 inches Hg (1011.0 mb)
Winds: from the ENE (60 degrees) at 5 MPH (4 knots; 2.1 m/s)
Visibility: 6 or more miles (10+ km)
Ceiling: at least 12,000 feet AGL
Clouds: few clouds at 7500 feet AGL
Weather: no significant weather observed at this time

METAR text: MSLP 190850Z 08003KT CAVOK 21/19 Q1011 A2986 NOSIG
Conditions at: MSLP (EL SALVADOR INT , SV) observed 0850 UTC 19 February 2019
Temperature: 21.0°C (70°F)
Dewpoint: 19.0°C (66°F) [RH = 88%]
Pressure (altimeter): 29.85 inches Hg (1011.0 mb)
Winds: from the E (80 degrees) at 3 MPH (3 knots; 1.5 m/s)
Visibility: 6 or more miles (10+ km)
Ceiling: ceiling and visibility are OK
Clouds: unknown
Weather: no significant weather observed at this time

METAR text: MSLP 190750Z 07004T CAVOK 21/19 Q1011 A2987 NOSIG
Conditions at: MSLP (EL SALVADOR INT , SV) observed 0750 UTC 19 February 2019
Temperature: 21.0°C (70°F)
Dewpoint: 19.0°C (66°F) [RH = 88%]
Pressure (altimeter): 29.85 inches Hg (1011.0 mb)
Winds: missing
Visibility: 6 or more miles (10+ km)
Ceiling: ceiling and visibility are OK
Clouds: unknown
Weather: no significant weather observed at this time

METAR text: MSLP 190650Z 04003KT CAVOK 21/19 Q1012 A2989 NOSIG
Conditions at: MSLP (EL SALVADOR INT , SV) observed 0650 UTC 19 February 2019
Temperature: 21.0°C (70°F)
Dewpoint: 19.0°C (66°F) [RH = 88%]
Pressure (altimeter): 29.88 inches Hg (1012.0 mb)
Winds: from the NE (40 degrees) at 3 MPH (3 knots; 1.5 m/s)
Visibility: 6 or more miles (10+ km)
Ceiling: ceiling and visibility are OK
Clouds: unknown
Weather: no significant weather observed at this time

METAR text: MSLP 190550Z VRB01KT CAVOK 22/19 Q1013 A2991 NOSIG
Conditions at: MSLP (EL SALVADOR INT , SV) observed 0550 UTC 19 February 2019
Temperature: 22.0°C (72°F)
Dewpoint: 19.0°C (66°F) [RH = 83%]
Pressure (altimeter): 29.91 inches Hg (1013.0 mb)
Winds: variable direction winds at 1 MPH (1 knots; 0.5 m/s)
Visibility: 6 or more miles (10+ km)
Ceiling: ceiling and visibility are OK
Clouds: unknown
Weather: no significant weather observed at this time

METAR text: MSLP 190450Z VRB02KT CAVOK 22/20 Q1013 A2993 NOSIG
Conditions at: MSLP (EL SALVADOR INT , SV) observed 0450 UTC 19 February 2019
Temperature: 22.0°C (72°F)
Dewpoint: 20.0°C (68°F) [RH = 88%]
Pressure (altimeter): 29.91 inches Hg (1013.0 mb)
Winds: variable direction winds at 2 MPH (2 knots; 1.0 m/s)
Visibility: 6 or more miles (10+ km)
Ceiling: ceiling and visibility are OK
Clouds: unknown
Weather: no significant weather observed at this time

METAR text: MSLP 190350Z 05002KT CAVOK 23/20 Q10131 A2991 NOSIG
Conditions at: MSLP (EL SALVADOR INT , SV) observed 0350 UTC 19 February 2019
Temperature: 23.0°C (73°F)
Dewpoint: 20.0°C (68°F) [RH = 83%]
Pressure (altimeter): 29.91 inches Hg (1013.0 mb)
Winds: from the NE (50 degrees) at 2 MPH (2 knots; 1.0 m/s)
Visibility: 6 or more miles (10+ km)
Ceiling: ceiling and visibility are OK
Clouds: unknown
Weather: no significant weather observed at this time

METAR text: MSLP 190250Z 03003KT 350V070 CAVOK 24/21 Q1012 A2990 NOSIG
Conditions at: MSLP (EL SALVADOR INT , SV) observed 0250 UTC 19 February 2019
Temperature: 24.0°C (75°F)
Dewpoint: 21.0°C (70°F) [RH = 83%]
Pressure (altimeter): 29.88 inches Hg (1012.0 mb)
Winds: from the NNE (30 degrees) at 3 MPH (3 knots; 1.5 m/s)
Visibility: 6 or more miles (10+ km)
Ceiling: ceiling and visibility are OK
Clouds: unknown
Weather: no significant weather observed at this time

METAR text: MSLP 190150Z 26005KT CAVOK 25/22 Q1011 A2987 NOSIG RMK FU WSW
Conditions at: MSLP (EL SALVADOR INT , SV) observed 0150 UTC 19 February 2019
Temperature: 25.0°C (77°F)
Dewpoint: 22.0°C (72°F) [RH = 83%]
Pressure (altimeter): 29.85 inches Hg (1011.0 mb)
Winds: from the W (260 degrees) at 6 MPH (5 knots; 2.6 m/s)
Visibility: 6 or more miles (10+ km)
Ceiling: ceiling and visibility are OK
Clouds: unknown
Weather: no significant weather observed at this time

METAR text: MSLP 190050Z 28005KT CAVOK 26/22 Q1011 A2985 NOSIG RMK FU W
Conditions at: MSLP (EL SALVADOR INT , SV) observed 0050 UTC 19 February 2019
Temperature: 26.0°C (79°F)
Dewpoint: 22.0°C (72°F) [RH = 79%]
Pressure (altimeter): 29.85 inches Hg (1011.0 mb)
Winds: from the W (280 degrees) at 6 MPH (5 knots; 2.6 m/s)
Visibility: 6 or more miles (10+ km)
Ceiling: ceiling and visibility are OK
Clouds: unknown
Weather: no significant weather observed at this time

METAR text: MSLP 190001Z 25006KT CAVOK 27/22 Q1010 NOSIG RMK FU NE W
Conditions at: MSLP (EL SALVADOR INT , SV) observed 0001 UTC 19 February 2019
Temperature: 27.0°C (81°F)
Dewpoint: 22.0°C (72°F) [RH = 74%]
Pressure (altimeter): 29.82 inches Hg (1010.0 mb)
Winds: from the WSW (250 degrees) at 7 MPH (6 knots; 3.1 m/s)
Visibility: 6 or more miles (10+ km)
Ceiling: ceiling and visibility are OK
Clouds: unknown
Weather: no significant weather observed at this time

METAR text: MSLP 182350Z 24007KT CAVOK 29/22 Q1010 A2984 NOSIG RMK FU NE S W
Conditions at: MSLP (EL SALVADOR INT , SV) observed 2350 UTC 18 February 2019
Temperature: 29.0°C (84°F)
Dewpoint: 22.0°C (72°F) [RH = 66%]
Pressure (altimeter): 29.82 inches Hg (1010.0 mb)
Winds: from the WSW (240 degrees) at 8 MPH (7 knots; 3.6 m/s)
Visibility: 6 or more miles (10+ km)
Ceiling: ceiling and visibility are OK
Clouds: unknown
Weather: no significant weather observed at this time

METAR text: MSLP 182250Z 23006KT CAVOK 30/21 Q1010 A2984 NOSIG RMK FU SSE W
Conditions at: MSLP (EL SALVADOR INT , SV) observed 2250 UTC 18 February 2019
Temperature: 30.0°C (86°F)
Dewpoint: 21.0°C (70°F) [RH = 59%]
Pressure (altimeter): 29.82 inches Hg (1010.0 mb)
Winds: from the SW (230 degrees) at 7 MPH (6 knots; 3.1 m/s)
Visibility: 6 or more miles (10+ km)
Ceiling: ceiling and visibility are OK
Clouds: unknown
Weather: no significant weather observed at this time

METAR text: MSLP 182150Z 24007KT 190V270 CAVOK 31/20 Q1010 A2983 NOSIG
Conditions at: MSLP (EL SALVADOR INT , SV) observed 2150 UTC 18 February 2019
Temperature: 31.0°C (88°F)
Dewpoint: 20.0°C (68°F) [RH = 52%]
Pressure (altimeter): 29.82 inches Hg (1010.0 mb)
Winds: from the WSW (240 degrees) at 8 MPH (7 knots; 3.6 m/s)
Visibility: 6 or more miles (10+ km)
Ceiling: ceiling and visibility are OK
Clouds: unknown
Weather: no significant weather observed at this time

METAR text: MSLP 182050Z 19007KT 150V240 9999 FEW047 32/19 Q1010 A2985 NOSIG
Conditions at: MSLP (EL SALVADOR INT , SV) observed 2050 UTC 18 February 2019
Temperature: 32.0°C (90°F)
Dewpoint: 19.0°C (66°F) [RH = 46%]
Pressure (altimeter): 29.82 inches Hg (1010.0 mb)
Winds: from the S (190 degrees) at 8 MPH (7 knots; 3.6 m/s)
Visibility: 6 or more miles (10+ km)
Ceiling: at least 12,000 feet AGL
Clouds: few clouds at 4700 feet AGL
Weather: no significant weather observed at this time

METAR text: MSLP 181950Z 18008KT 140V210 9999 FEW047 32/20 Q1011 A2987 NOSIG
Conditions at: MSLP (EL SALVADOR INT , SV) observed 1950 UTC 18 February 2019
Temperature: 32.0°C (90°F)
Dewpoint: 20.0°C (68°F) [RH = 49%]
Pressure (altimeter): 29.85 inches Hg (1011.0 mb)
Winds: from the S (180 degrees) at 9 MPH (8 knots; 4.1 m/s)
Visibility: 6 or more miles (10+ km)
Ceiling: at least 12,000 feet AGL
Clouds: few clouds at 4700 feet AGL
Weather: no significant weather observed at this time

METAR text: MSLP 181850Z 20009KT 160V220 9999 FEW047 32/22 Q1012 A2990 NOSIG
Conditions at: MSLP (EL SALVADOR INT , SV) observed 1850 UTC 18 February 2019
Temperature: 32.0°C (90°F)
Dewpoint: 22.0°C (72°F) [RH = 56%]
Pressure (altimeter): 29.88 inches Hg (1012.0 mb)
Winds: from the SSW (200 degrees) at 10 MPH (9 knots; 4.6 m/s)
Visibility: 6 or more miles (10+ km)
Ceiling: at least 12,000 feet AGL
Clouds: few clouds at 4700 feet AGL
Weather: no significant weather observed at this time

METAR text: MSLP 181750Z 16008KT 110V240 9999 FEW043 32/21 Q1013 A2993 RMK G14KT
Conditions at: MSLP (EL SALVADOR INT , SV) observed 1750 UTC 18 February 2019
Temperature: 32.0°C (90°F)
Dewpoint: 21.0°C (70°F) [RH = 52%]
Pressure (altimeter): 29.91 inches Hg (1013.0 mb)
Winds: from the SSE (160 degrees) at 9 MPH (8 knots; 4.1 m/s)
Visibility: 6 or more miles (10+ km)
Ceiling: at least 12,000 feet AGL
Clouds: few clouds at 4300 feet AGL
Weather: no significant weather observed at this time

METAR text: MSLP 181650Z 11005KT 030V140 9999 FEW047 32/20 Q1014 A2995 NOSIG RMK FU SE HZ
Conditions at: MSLP (EL SALVADOR INT , SV) observed 1650 UTC 18 February 2019
Temperature: 32.0°C (90°F)
Dewpoint: 20.0°C (68°F) [RH = 49%]
Pressure (altimeter): 29.94 inches Hg (1014.0 mb)
Winds: from the ESE (110 degrees) at 6 MPH (5 knots; 2.6 m/s)
Visibility: 6 or more miles (10+ km)
Ceiling: at least 12,000 feet AGL
Clouds: few clouds at 4700 feet AGL
Weather: no significant weather observed at this time

METAR text: MSLP 181550Z 10006KT 040V140 9999 FEW047 31/20 Q1015 A2997 NOSIG RMK HZ
Conditions at: MSLP (EL SALVADOR INT , SV) observed 1550 UTC 18 February 2019
Temperature: 31.0°C (88°F)
Dewpoint: 20.0°C (68°F) [RH = 52%]
Pressure (altimeter): 29.97 inches Hg (1015.0 mb)
Winds: from the E (100 degrees) at 7 MPH (6 knots; 3.1 m/s)
Visibility: 6 or more miles (10+ km)
Ceiling: at least 12,000 feet AGL
Clouds: few clouds at 4700 feet AGL
Weather: no significant weather observed at this time

METAR text: MSLP 181536Z 10005KT 060V150 9999 FEW047 31/19 Q1015 NOSIG
Conditions at: MSLP (EL SALVADOR INT , SV) observed 1536 UTC 18 February 2019
Temperature: 31.0°C (88°F)
Dewpoint: 19.0°C (66°F) [RH = 49%]
Pressure (altimeter): 29.97 inches Hg (1015.0 mb)
Winds: from the E (100 degrees) at 6 MPH (5 knots; 2.6 m/s)
Visibility: 6 or more miles (10+ km)
Ceiling: at least 12,000 feet AGL
Clouds: few clouds at 4700 feet AGL
Weather: no significant weather observed at this time

METAR text: MSLP 181450Z 08004KT 350V150 CAVOK 29/21 Q1014 A2995 NOSIG RMK FU S SW HZ
Conditions at: MSLP (EL SALVADOR INT , SV) observed 1450 UTC 18 February 2019
Temperature: 29.0°C (84°F)
Dewpoint: 21.0°C (70°F) [RH = 62%]
Pressure (altimeter): 29.94 inches Hg (1014.0 mb)
Winds: from the E (80 degrees) at 5 MPH (4 knots; 2.1 m/s)
Visibility: 6 or more miles (10+ km)
Ceiling: ceiling and visibility are OK
Clouds: unknown
Weather: no significant weather observed at this time

METAR text: MSLP 181437Z 01004KT 340V050 CAVOK 30/20 Q1014 NOSIG RMK FU S SW HZ
Conditions at: MSLP (EL SALVADOR INT , SV) observed 1437 UTC 18 February 2019
Temperature: 30.0°C (86°F)
Dewpoint: 20.0°C (68°F) [RH = 55%]
Pressure (altimeter): 29.94 inches Hg (1014.0 mb)
Winds: from the N (10 degrees) at 5 MPH (4 knots; 2.1 m/s)
Visibility: 6 or more miles (10+ km)
Ceiling: ceiling and visibility are OK
Clouds: unknown
Weather: no significant weather observed at this time

METAR text: MSLP 181405Z 01006KT 330V040 CAVOK 28/19 Q1014 NOSIG RMK HZ
Conditions at: MSLP (EL SALVADOR INT , SV) observed 1405 UTC 18 February 2019
Temperature: 28.0°C (82°F)
Dewpoint: 19.0°C (66°F) [RH = 58%]
Pressure (altimeter): 29.94 inches Hg (1014.0 mb)
Winds: from the N (10 degrees) at 7 MPH (6 knots; 3.1 m/s)
Visibility: 6 or more miles (10+ km)
Ceiling: ceiling and visibility are OK
Clouds: unknown
Weather: no significant weather observed at this time

METAR text: MSLP 181350Z 36004KT 340V040 CAVOK 26/20 Q1013 A2993 NOSIG RMK HZ
Conditions at: MSLP (EL SALVADOR INT , SV) observed 1350 UTC 18 February 2019
Temperature: 26.0°C (79°F)
Dewpoint: 20.0°C (68°F) [RH = 70%]
Pressure (altimeter): 29.91 inches Hg (1013.0 mb)
Winds: from the N (360 degrees) at 5 MPH (4 knots; 2.1 m/s)
Visibility: 6 or more miles (10+ km)
Ceiling: ceiling and visibility are OK
Clouds: unknown
Weather: no significant weather observed at this time

METAR text: MSLP 181336Z VRB02KT CAVOK 26/20 Q1013 NOSIG RMK HZ
Conditions at: MSLP (EL SALVADOR INT , SV) observed 1336 UTC 18 February 2019
Temperature: 26.0°C (79°F)
Dewpoint: 20.0°C (68°F) [RH = 70%]
Pressure (altimeter): 29.91 inches Hg (1013.0 mb)
Winds: variable direction winds at 2 MPH (2 knots; 1.0 m/s)
Visibility: 6 or more miles (10+ km)
Ceiling: ceiling and visibility are OK
Clouds: unknown
Weather: no significant weather observed at this time

METAR text: MSLP 181322Z 04003KT 360V070 CAVOK 24/19 Q1013 NOSIG
Conditions at: MSLP (EL SALVADOR INT , SV) observed 1322 UTC 18 February 2019
Temperature: 24.0°C (75°F)
Dewpoint: 19.0°C (66°F) [RH = 74%]
Pressure (altimeter): 29.91 inches Hg (1013.0 mb)
Winds: from the NE (40 degrees) at 3 MPH (3 knots; 1.5 m/s)
Visibility: 6 or more miles (10+ km)
Ceiling: ceiling and visibility are OK
Clouds: unknown
Weather: no significant weather observed at this time

METAR text: MSLP 181309Z 03003KT CAVOK 22/20 Q1013 NOSIG
Conditions at: MSLP (EL SALVADOR INT , SV) observed 1309 UTC 18 February 2019
Temperature: 22.0°C (72°F)
Dewpoint: 20.0°C (68°F) [RH = 88%]
Pressure (altimeter): 29.91 inches Hg (1013.0 mb)
Winds: from the NNE (30 degrees) at 3 MPH (3 knots; 1.5 m/s)
Visibility: 6 or more miles (10+ km)
Ceiling: ceiling and visibility are OK
Clouds: unknown
Weather: no significant weather observed at this time

METAR text: MSLP 181250Z VRB02KT CAVOK 20/18 Q1013 A2991 NOSIG RMK FU SE SW
Conditions at: MSLP (EL SALVADOR INT , SV) observed 1250 UTC 18 February 2019
Temperature: 20.0°C (68°F)
Dewpoint: 18.0°C (64°F) [RH = 88%]
Pressure (altimeter): 29.91 inches Hg (1013.0 mb)
Winds: variable direction winds at 2 MPH (2 knots; 1.0 m/s)
Visibility: 6 or more miles (10+ km)
Ceiling: ceiling and visibility are OK
Clouds: unknown
Weather: no significant weather observed at this time

METAR text: MSLP 181150Z 05003KT CAVOK 20/18 Q1012 A2989 NOSIG
Conditions at: MSLP (EL SALVADOR INT , SV) observed 1150 UTC 18 February 2019
Temperature: 20.0°C (68°F)
Dewpoint: 18.0°C (64°F) [RH = 88%]
Pressure (altimeter): 29.88 inches Hg (1012.0 mb)
Winds: from the NE (50 degrees) at 3 MPH (3 knots; 1.5 m/s)
Visibility: 6 or more miles (10+ km)
Ceiling: ceiling and visibility are OK
Clouds: unknown
Weather: no significant weather observed at this time

METAR text: MSLP 181050Z 07005KT CAVOK 20/18 Q1011 A2987 NOSIG
Conditions at: MSLP (EL SALVADOR INT , SV) observed 1050 UTC 18 February 2019
Temperature: 20.0°C (68°F)
Dewpoint: 18.0°C (64°F) [RH = 88%]
Pressure (altimeter): 29.85 inches Hg (1011.0 mb)
Winds: from the ENE (70 degrees) at 6 MPH (5 knots; 2.6 m/s)
Visibility: 6 or more miles (10+ km)
Ceiling: ceiling and visibility are OK
Clouds: unknown
Weather: no significant weather observed at this time

METAR text: MSLP 180950Z 07005KT CAVOK 21/18 Q1011 A2986 NOSIG
Conditions at: MSLP (EL SALVADOR INT , SV) observed 0950 UTC 18 February 2019
Temperature: 21.0°C (70°F)
Dewpoint: 18.0°C (64°F) [RH = 83%]
Pressure (altimeter): 29.85 inches Hg (1011.0 mb)
Winds: from the ENE (70 degrees) at 6 MPH (5 knots; 2.6 m/s)
Visibility: 6 or more miles (10+ km)
Ceiling: ceiling and visibility are OK
Clouds: unknown
Weather: no significant weather observed at this time

METAR text: MSLP 180850Z 07004KT CAVOK 20/19 Q1011 A2987 NOSIG
Conditions at: MSLP (EL SALVADOR INT , SV) observed 0850 UTC 18 February 2019
Temperature: 20.0°C (68°F)
Dewpoint: 19.0°C (66°F) [RH = 94%]
Pressure (altimeter): 29.85 inches Hg (1011.0 mb)
Winds: from the ENE (70 degrees) at 5 MPH (4 knots; 2.1 m/s)
Visibility: 6 or more miles (10+ km)
Ceiling: ceiling and visibility are OK
Clouds: unknown
Weather: no significant weather observed at this time

METAR text: MSLP 180750Z 07003KT 050V110 CAVOK 21/19 Q1012 A2989 NOSIG
Conditions at: MSLP (EL SALVADOR INT , SV) observed 0750 UTC 18 February 2019
Temperature: 21.0°C (70°F)
Dewpoint: 19.0°C (66°F) [RH = 88%]
Pressure (altimeter): 29.88 inches Hg (1012.0 mb)
Winds: from the ENE (70 degrees) at 3 MPH (3 knots; 1.5 m/s)
Visibility: 6 or more miles (10+ km)
Ceiling: ceiling and visibility are OK
Clouds: unknown
Weather: no significant weather observed at this time

METAR text: MSLP 180650Z VRB02KT CAVOK 22/19 Q1012 A2990 NOSIG
Conditions at: MSLP (EL SALVADOR INT , SV) observed 0650 UTC 18 February 2019
Temperature: 22.0°C (72°F)
Dewpoint: 19.0°C (66°F) [RH = 83%]
Pressure (altimeter): 29.88 inches Hg (1012.0 mb)
Winds: variable direction winds at 2 MPH (2 knots; 1.0 m/s)
Visibility: 6 or more miles (10+ km)
Ceiling: ceiling and visibility are OK
Clouds: unknown
Weather: no significant weather observed at this time

METAR text: MSLP 180550Z 04002KT CAVOK 23/20 Q1013 A2992 NOSIG
Conditions at: MSLP (EL SALVADOR INT , SV) observed 0550 UTC 18 February 2019
Temperature: 23.0°C (73°F)
Dewpoint: 20.0°C (68°F) [RH = 83%]
Pressure (altimeter): 29.91 inches Hg (1013.0 mb)
Winds: from the NE (40 degrees) at 2 MPH (2 knots; 1.0 m/s)
Visibility: 6 or more miles (10+ km)
Ceiling: ceiling and visibility are OK
Clouds: unknown
Weather: no significant weather observed at this time

METAR text: MSLP 180450Z 05003KT CAVOK 22/21 Q1013 A2993 NOSIG
Conditions at: MSLP (EL SALVADOR INT , SV) observed 0450 UTC 18 February 2019
Temperature: 22.0°C (72°F)
Dewpoint: 21.0°C (70°F) [RH = 94%]
Pressure (altimeter): 29.91 inches Hg (1013.0 mb)
Winds: from the NE (50 degrees) at 3 MPH (3 knots; 1.5 m/s)
Visibility: 6 or more miles (10+ km)
Ceiling: ceiling and visibility are OK
Clouds: unknown
Weather: no significant weather observed at this time

METAR text: MSLP 180350Z 03003KT CAVOK 23/22 Q1013 A2992 NOSIG
Conditions at: MSLP (EL SALVADOR INT , SV) observed 0350 UTC 18 February 2019
Temperature: 23.0°C (73°F)
Dewpoint: 22.0°C (72°F) [RH = 94%]
Pressure (altimeter): 29.91 inches Hg (1013.0 mb)
Winds: from the NNE (30 degrees) at 3 MPH (3 knots; 1.5 m/s)
Visibility: 6 or more miles (10+ km)
Ceiling: ceiling and visibility are OK
Clouds: unknown
Weather: no significant weather observed at this time

METAR text: MSLP 180250Z VRB02KT CAVOK 25/23 Q1012 A2991 NOSIG
Conditions at: MSLP (EL SALVADOR INT , SV) observed 0250 UTC 18 February 2019
Temperature: 25.0°C (77°F)
Dewpoint: 23.0°C (73°F) [RH = 89%]
Pressure (altimeter): 29.88 inches Hg (1012.0 mb)
Winds: variable direction winds at 2 MPH (2 knots; 1.0 m/s)
Visibility: 6 or more miles (10+ km)
Ceiling: ceiling and visibility are OK
Clouds: unknown
Weather: no significant weather observed at this time

METAR text: MSLP 180150Z 31003KT CAVOK 26/24 Q1012 A2989 NOSIG
Conditions at: MSLP (EL SALVADOR INT , SV) observed 0150 UTC 18 February 2019
Temperature: 26.0°C (79°F)
Dewpoint: 24.0°C (75°F) [RH = 89%]
Pressure (altimeter): 29.88 inches Hg (1012.0 mb)
Winds: from the NW (310 degrees) at 3 MPH (3 knots; 1.5 m/s)
Visibility: 6 or more miles (10+ km)
Ceiling: ceiling and visibility are OK
Clouds: unknown
Weather: no significant weather observed at this time

METAR text: MSLP 180102Z 29005KT 270V330 CAVOK 26/24 Q1011 NOSIG
Conditions at: MSLP (EL SALVADOR INT , SV) observed 0102 UTC 18 February 2019
Temperature: 26.0°C (79°F)
Dewpoint: 24.0°C (75°F) [RH = 89%]
Pressure (altimeter): 29.85 inches Hg (1011.0 mb)
Winds: from the WNW (290 degrees) at 6 MPH (5 knots; 2.6 m/s)
Visibility: 6 or more miles (10+ km)
Ceiling: ceiling and visibility are OK
Clouds: unknown
Weather: no significant weather observed at this time

METAR text: MSLP 180050Z 25006KT 9999 4000W FU NSC 26/23 Q1011 A2987 NOSIG
Conditions at: MSLP (EL SALVADOR INT , SV) observed 0050 UTC 18 February 2019
Temperature: 26.0°C (79°F)
Dewpoint: 23.0°C (73°F) [RH = 84%]
Pressure (altimeter): 29.85 inches Hg (1011.0 mb)
Winds: from the WSW (250 degrees) at 7 MPH (6 knots; 3.1 m/s)
Visibility: 6 or more miles (10+ km)
Ceiling: at least 12,000 feet AGL
Clouds: sky clear below 12,000 feet AGL
Weather: FU  (smoke)

METAR text: MSLP 180022Z 24006KT 9999 4000W FU NSC 26/23 Q1011 NOSIG
Conditions at: MSLP (EL SALVADOR INT , SV) observed 0022 UTC 18 February 2019
Temperature: 26.0°C (79°F)
Dewpoint: 23.0°C (73°F) [RH = 84%]
Pressure (altimeter): 29.85 inches Hg (1011.0 mb)
Winds: from the WSW (240 degrees) at 7 MPH (6 knots; 3.1 m/s)
Visibility: 6 or more miles (10+ km)
Ceiling: at least 12,000 feet AGL
Clouds: sky clear below 12,000 feet AGL
Weather: FU  (smoke)

METAR text: MSLP 172350Z 24006KT CAVOK 28/23 Q1011 A2986 NOSIG
Conditions at: MSLP (EL SALVADOR INT , SV) observed 2350 UTC 17 February 2019
Temperature: 28.0°C (82°F)
Dewpoint: 23.0°C (73°F) [RH = 74%]
Pressure (altimeter): 29.85 inches Hg (1011.0 mb)
Winds: from the WSW (240 degrees) at 7 MPH (6 knots; 3.1 m/s)
Visibility: 6 or more miles (10+ km)
Ceiling: ceiling and visibility are OK
Clouds: unknown
Weather: no significant weather observed at this time

METAR text: MSLP 172250Z 23007KT 9999 FEW055 29/22 Q1010 A2984 NOSIG
Conditions at: MSLP (EL SALVADOR INT , SV) observed 2250 UTC 17 February 2019
Temperature: 29.0°C (84°F)
Dewpoint: 22.0°C (72°F) [RH = 66%]
Pressure (altimeter): 29.82 inches Hg (1010.0 mb)
Winds: from the SW (230 degrees) at 8 MPH (7 knots; 3.6 m/s)
Visibility: 6 or more miles (10+ km)
Ceiling: at least 12,000 feet AGL
Clouds: few clouds at 5500 feet AGL
Weather: no significant weather observed at this time

Forecast for: MSLP (EL SALVADOR INT , SV)
Text: TAF MSLP 190925Z 1912/2012 05005KT CAVOK TX33/1918Z TN20/2010Z
Forecast period: 1200 to 1700 UTC 19 February 2019
Forecast type: FROM: standard forecast or significant change
Winds: from the NE (50 degrees) at 6 MPH (5 knots; 2.6 m/s)
Visibility: 6 or more miles 10+ km)
Ceiling: unknown
Clouds: missing
Weather: no significant weather forecast for this period
Text: FM191700 21010KT 9999 FEW043
Forecast period: 1700 UTC 19 February 2019 to 0100 UTC 20 February 2019
Forecast type: FROM: standard forecast or significant change
Winds: from the SSW (210 degrees) at 12 MPH (10 knots; 5.1 m/s)
Visibility: 6 or more miles 10+ km)
Ceiling: at least 12,000 feet AGL
Clouds: few clouds at 4300 feet AGL
Weather: no significant weather forecast for this period
Text: FM200100 32004KT SCT065
Forecast period: 0100 to 1200 UTC 20 February 2019
Forecast type: FROM: standard forecast or significant change
Winds: from the NW (320 degrees) at 5 MPH (4 knots; 2.1 m/s)
Visibility: missing
Ceiling: at least 12,000 feet AGL
Clouds: scattered clouds at 6500 feet AGL
Weather: no significant weather forecast for this period